Time,TemperatureF,DewpointF,PressureIn,WindDirection,WindDirectionDegrees,WindSpeedMPH,WindSpeedGustMPH,Humidity,HourlyPrecipIn,Conditions,Clouds,dailyrainin,SoftwareType,DateUTC
2013-01-22 00:10:00,53.8,35.0,30.12,NW,323,4.0,-999.0,49,-99.99,,,0.00,weatherlink.com 1.10,2013-01-22 08:10:00,
2013-01-22 00:25:00,53.8,35.0,30.12,NW,306,2.0,-999.0,50,-99.99,,,0.00,weatherlink.com 1.10,2013-01-22 08:25:00,
2013-01-22 00:40:00,53.5,36.0,30.11,NNW,329,6.0,-999.0,51,-99.99,,,0.00,weatherlink.com 1.10,2013-01-22 08:40:00,
2013-01-22 00:55:00,53.2,36.0,30.11,WNW,298,5.0,-999.0,52,-99.99,,,0.00,weatherlink.com 1.10,2013-01-22 08:55:00,
2013-01-22 01:10:00,52.9,36.0,30.11,NNW,334,3.0,-999.0,53,-99.99,,,0.00,weatherlink.com 1.10,2013-01-22 09:10:00,
2013-01-22 01:25:00,52.7,36.0,30.11,NNW,341,5.0,-999.0,54,-99.99,,,0.00,weatherlink.com 1.10,2013-01-22 09:25:00,
2013-01-22 01:40:00,52.5,37.0,30.11,NW,319,4.0,-999.0,55,-99.99,,,0.00,weatherlink.com 1.10,2013-01-22 09:40:00,
2013-01-22 01:55:00,52.3,36.0,30.11,NNW,331,3.0,-999.0,55,-99.99,,,0.00,weatherlink.com 1.10,2013-01-22 09:55:00,
2013-01-22 02:10:00,51.9,37.0,30.11,NNW,331,6.0,-999.0,57,-99.99,,,0.00,weatherlink.com 1.10,2013-01-22 10:10:00,
2013-01-22 02:25:00,51.4,37.0,30.11,NW,321,4.0,-999.0,59,-99.99,,,0.00,weatherlink.com 1.10,2013-01-22 10:25:00,
2013-01-22 02:40:00,51.2,37.0,30.11,WNW,295,9.0,-999.0,59,-99.99,,,0.00,weatherlink.com 1.10,2013-01-22 10:40:00,
2013-01-22 02:55:00,51.0,37.0,30.11,NW,321,6.0,-999.0,59,-99.99,,,0.00,weatherlink.com 1.10,2013-01-22 10:55:00,
2013-01-22 03:10:00,51.1,37.0,30.10,NNW,327,1.0,-999.0,58,-99.99,,,0.00,weatherlink.com 1.10,2013-01-22 11:10:00,
2013-01-22 03:25:00,51.2,37.0,30.09,WNW,296,3.0,-999.0,58,-99.99,,,0.00,weatherlink.com 1.10,2013-01-22 11:25:00,
2013-01-22 03:40:00,51.0,36.0,30.09,NNW,344,5.0,-999.0,57,-99.99,,,0.00,weatherlink.com 1.10,2013-01-22 11:40:00,
2013-01-22 03:55:00,50.9,36.0,30.09,NW,324,4.0,-999.0,57,-99.99,,,0.00,weatherlink.com 1.10,2013-01-22 11:55:00,
2013-01-22 04:10:00,50.9,35.0,30.09,NW,307,3.0,-999.0,55,-99.99,,,0.00,weatherlink.com 1.10,2013-01-22 12:10:00,
2013-01-22 04:25:00,51.1,34.0,30.09,North,5,2.0,-999.0,53,-99.99,,,0.00,weatherlink.com 1.10,2013-01-22 12:25:00,
2013-01-22 04:40:00,50.7,34.0,30.08,North,350,6.0,-999.0,53,-99.99,,,0.00,weatherlink.com 1.10,2013-01-22 12:40:00,
2013-01-22 04:55:00,50.9,34.0,30.09,North,10,2.0,-999.0,53,-99.99,,,0.00,weatherlink.com 1.10,2013-01-22 12:55:00,
2013-01-22 05:10:00,50.9,34.0,30.09,NW,315,3.0,-999.0,53,-99.99,,,0.00,weatherlink.com 1.10,2013-01-22 13:10:00,
2013-01-22 05:25:00,50.7,34.0,30.09,NE,52,1.0,-999.0,53,-99.99,,,0.00,weatherlink.com 1.10,2013-01-22 13:25:00,
2013-01-22 05:40:00,50.2,34.0,30.10,North,350,0.0,-999.0,54,-99.99,,,0.00,weatherlink.com 1.10,2013-01-22 13:40:00,
2013-01-22 05:55:00,50.3,34.0,30.10,NW,304,2.0,-999.0,55,-99.99,,,0.00,weatherlink.com 1.10,2013-01-22 13:55:00,
2013-01-22 06:10:00,50.3,34.0,30.10,NE,55,1.0,-999.0,54,-99.99,,,0.00,weatherlink.com 1.10,2013-01-22 14:10:00,
2013-01-22 06:25:00,50.3,34.0,30.10,NW,312,4.0,-999.0,54,-99.99,,,0.00,weatherlink.com 1.10,2013-01-22 14:25:00,
2013-01-22 06:40:00,50.6,34.0,30.10,NE,42,1.0,-999.0,54,-99.99,,,0.00,weatherlink.com 1.10,2013-01-22 14:40:00,
2013-01-22 06:55:00,50.6,34.0,30.11,NW,315,5.0,-999.0,54,-99.99,,,0.00,weatherlink.com 1.10,2013-01-22 14:55:00,
2013-01-22 07:10:00,50.5,34.0,30.10,NNW,327,4.0,-999.0,54,-99.99,,,0.00,weatherlink.com 1.10,2013-01-22 15:10:00,
2013-01-22 07:25:00,50.4,35.0,30.11,NW,322,0.0,-999.0,55,-99.99,,,0.00,weatherlink.com 1.10,2013-01-22 15:25:00,
2013-01-22 07:40:00,50.2,34.0,30.11,NNW,337,5.0,-999.0,55,-99.99,,,0.00,weatherlink.com 1.10,2013-01-22 15:40:00,
2013-01-22 07:55:00,49.8,35.0,30.11,NNW,327,5.0,-999.0,57,-99.99,,,0.00,weatherlink.com 1.10,2013-01-22 15:55:00,
2013-01-22 08:10:00,49.6,35.0,30.10,NW,321,4.0,-999.0,58,-99.99,,,0.00,weatherlink.com 1.10,2013-01-22 16:10:00,
2013-01-22 08:25:00,49.6,35.0,30.10,NNW,331,2.0,-999.0,58,-99.99,,,0.00,weatherlink.com 1.10,2013-01-22 16:25:00,
2013-01-22 08:40:00,49.4,35.0,30.11,NNW,327,1.0,-999.0,58,-99.99,,,0.00,weatherlink.com 1.10,2013-01-22 16:40:00,
2013-01-22 08:55:00,49.6,36.0,30.11,NNW,332,4.0,-999.0,59,-99.99,,,0.00,weatherlink.com 1.10,2013-01-22 16:55:00,
2013-01-22 09:10:00,50.1,36.0,30.11,North,349,3.0,-999.0,59,-99.99,,,0.00,weatherlink.com 1.10,2013-01-22 17:10:00,
2013-01-22 09:25:00,50.8,37.0,30.11,WNW,284,3.0,-999.0,59,-99.99,,,0.00,weatherlink.com 1.10,2013-01-22 17:25:00,
2013-01-22 09:40:00,51.4,36.0,30.11,NW,304,3.0,-999.0,57,-99.99,,,0.00,weatherlink.com 1.10,2013-01-22 17:40:00,
2013-01-22 09:55:00,52.3,37.0,30.12,NW,323,1.0,-999.0,57,-99.99,,,0.00,weatherlink.com 1.10,2013-01-22 17:55:00,
2013-01-22 10:10:00,53.6,38.0,30.12,NW,313,1.0,-999.0,55,-99.99,,,0.00,weatherlink.com 1.10,2013-01-22 18:10:00,
2013-01-22 10:25:00,54.4,37.0,30.13,WNW,298,0.0,-999.0,53,-99.99,,,0.00,weatherlink.com 1.10,2013-01-22 18:25:00,
2013-01-22 10:40:00,56.0,37.0,30.13,WNW,299,1.0,-999.0,50,-99.99,,,0.00,weatherlink.com 1.10,2013-01-22 18:40:00,
2013-01-22 10:55:00,56.1,37.0,30.13,WNW,283,4.0,-999.0,50,-99.99,,,0.00,weatherlink.com 1.10,2013-01-22 18:55:00,
2013-01-22 11:10:00,56.0,36.0,30.12,NNW,327,2.0,-999.0,48,-99.99,,,0.00,weatherlink.com 1.10,2013-01-22 19:10:00,
2013-01-22 11:25:00,57.0,37.0,30.12,WNW,294,0.0,-999.0,48,-99.99,,,0.00,weatherlink.com 1.10,2013-01-22 19:25:00,
2013-01-22 11:40:00,58.1,39.0,30.11,West,264,3.0,-999.0,49,-99.99,,,0.00,weatherlink.com 1.10,2013-01-22 19:40:00,
2013-01-22 11:55:00,57.6,38.0,30.10,NE,53,0.0,-999.0,48,-99.99,,,0.00,weatherlink.com 1.10,2013-01-22 19:55:00,
2013-01-22 12:10:00,57.7,37.0,30.09,ENE,67,2.0,-999.0,47,-99.99,,,0.00,weatherlink.com 1.10,2013-01-22 20:10:00,
2013-01-22 12:25:00,56.1,36.0,30.08,ESE,114,2.0,-999.0,48,-99.99,,,0.00,weatherlink.com 1.10,2013-01-22 20:25:00,
2013-01-22 12:40:00,57.5,38.0,30.07,SE,140,0.0,-999.0,48,-99.99,,,0.00,weatherlink.com 1.10,2013-01-22 20:40:00,
2013-01-22 12:55:00,59.3,38.0,30.07,ESE,112,6.0,-999.0,45,-99.99,,,0.00,weatherlink.com 1.10,2013-01-22 20:55:00,
2013-01-22 13:10:00,55.4,36.0,30.06,ESE,117,2.0,-999.0,48,-99.99,,,0.00,weatherlink.com 1.10,2013-01-22 21:10:00,
2013-01-22 13:25:00,55.7,36.0,30.05,East,94,3.0,-999.0,48,-99.99,,,0.00,weatherlink.com 1.10,2013-01-22 21:25:00,
2013-01-22 13:40:00,55.9,37.0,30.04,East,96,0.0,-999.0,49,-99.99,,,0.00,weatherlink.com 1.10,2013-01-22 21:40:00,
2013-01-22 13:55:00,55.8,37.0,30.04,East,90,0.0,-999.0,50,-99.99,,,0.00,weatherlink.com 1.10,2013-01-22 21:55:00,
2013-01-22 14:10:00,56.8,39.0,30.04,West,272,0.0,-999.0,52,-99.99,,,0.00,weatherlink.com 1.10,2013-01-22 22:10:00,
2013-01-22 14:25:00,59.6,39.0,30.04,West,281,0.0,-999.0,47,-99.99,,,0.00,weatherlink.com 1.10,2013-01-22 22:25:00,
2013-01-22 14:40:00,57.9,39.0,30.03,NW,323,0.0,-999.0,49,-99.99,,,0.00,weatherlink.com 1.10,2013-01-22 22:40:00,
2013-01-22 14:55:00,57.8,39.0,30.03,West,280,0.0,-999.0,50,-99.99,,,0.00,weatherlink.com 1.10,2013-01-22 22:55:00,
2013-01-22 15:10:00,57.3,39.0,30.03,WNW,300,0.0,-999.0,51,-99.99,,,0.00,weatherlink.com 1.10,2013-01-22 23:10:00,
2013-01-22 15:25:00,57.1,39.0,30.02,WNW,298,2.0,-999.0,51,-99.99,,,0.00,weatherlink.com 1.10,2013-01-22 23:25:00,
2013-01-22 15:40:00,56.4,40.0,30.02,NNW,342,1.0,-999.0,55,-99.99,,,0.00,weatherlink.com 1.10,2013-01-22 23:40:00,
2013-01-22 15:55:00,55.8,40.0,30.02,North,355,2.0,-999.0,55,-99.99,,,0.00,weatherlink.com 1.10,2013-01-22 23:55:00,
2013-01-22 16:10:00,54.9,40.0,30.02,NE,34,0.0,-999.0,57,-99.99,,,0.00,weatherlink.com 1.10,2013-01-23 00:10:00,
2013-01-22 16:25:00,54.7,40.0,30.01,NW,318,0.0,-999.0,57,-99.99,,,0.00,weatherlink.com 1.10,2013-01-23 00:25:00,
2013-01-22 16:40:00,54.8,41.0,30.01,WNW,299,0.0,-999.0,59,-99.99,,,0.00,weatherlink.com 1.10,2013-01-23 00:40:00,
2013-01-22 16:55:00,54.2,39.0,30.01,WNW,300,0.0,-999.0,57,-99.99,,,0.00,weatherlink.com 1.10,2013-01-23 00:55:00,
2013-01-22 17:10:00,54.5,41.0,30.01,WNW,300,0.0,-999.0,60,-99.99,,,0.00,weatherlink.com 1.10,2013-01-23 01:10:00,
2013-01-22 17:25:00,54.5,39.0,30.00,WNW,300,0.0,-999.0,57,-99.99,,,0.00,weatherlink.com 1.10,2013-01-23 01:25:00,
2013-01-22 17:40:00,54.1,39.0,30.01,WNW,299,1.0,-999.0,58,-99.99,,,0.00,weatherlink.com 1.10,2013-01-23 01:40:00,
2013-01-22 17:55:00,54.0,40.0,30.01,WNW,300,1.0,-999.0,59,-99.99,,,0.00,weatherlink.com 1.10,2013-01-23 01:55:00,
2013-01-22 18:10:00,53.7,40.0,30.01,WNW,300,0.0,-999.0,61,-99.99,,,0.00,weatherlink.com 1.10,2013-01-23 02:10:00,
2013-01-22 18:25:00,53.2,40.0,30.01,WNW,300,0.0,-999.0,62,-99.99,,,0.00,weatherlink.com 1.10,2013-01-23 02:25:00,
2013-01-22 18:40:00,53.2,41.0,30.01,WNW,302,2.0,-999.0,63,-99.99,,,0.00,weatherlink.com 1.10,2013-01-23 02:40:00,
2013-01-22 18:55:00,53.6,41.0,30.01,NW,307,3.0,-999.0,62,-99.99,,,0.00,weatherlink.com 1.10,2013-01-23 02:55:00,
2013-01-22 19:10:00,53.9,41.0,30.01,NW,315,1.0,-999.0,61,-99.99,,,0.00,weatherlink.com 1.10,2013-01-23 03:10:00,
2013-01-22 19:25:00,54.0,40.0,30.01,NW,315,2.0,-999.0,60,-99.99,,,0.00,weatherlink.com 1.10,2013-01-23 03:25:00,
2013-01-22 19:40:00,54.2,40.0,30.01,NW,317,0.0,-999.0,59,-99.99,,,0.00,weatherlink.com 1.10,2013-01-23 03:40:00,
2013-01-22 19:55:00,54.3,40.0,30.01,NW,317,0.0,-999.0,58,-99.99,,,0.00,weatherlink.com 1.10,2013-01-23 03:55:00,
2013-01-22 20:10:00,53.9,40.0,30.01,NW,317,0.0,-999.0,59,-99.99,,,0.00,weatherlink.com 1.10,2013-01-23 04:10:00,
2013-01-22 20:25:00,53.6,39.0,30.02,NW,317,3.0,-999.0,59,-99.99,,,0.00,weatherlink.com 1.10,2013-01-23 04:25:00,
2013-01-22 20:40:00,53.3,40.0,30.02,NW,313,0.0,-999.0,60,-99.99,,,0.00,weatherlink.com 1.10,2013-01-23 04:40:00,
2013-01-22 20:55:00,52.9,40.0,30.03,NW,311,4.0,-999.0,61,-99.99,,,0.00,weatherlink.com 1.10,2013-01-23 04:55:00,
2013-01-22 21:10:00,52.7,40.0,30.03,NW,319,4.0,-999.0,62,-99.99,,,0.00,weatherlink.com 1.10,2013-01-23 05:10:00,
2013-01-22 21:25:00,52.6,40.0,30.03,NNW,331,3.0,-999.0,63,-99.99,,,0.00,weatherlink.com 1.10,2013-01-23 05:25:00,
2013-01-22 21:40:00,52.2,40.0,30.04,NNW,330,0.0,-999.0,63,-99.99,,,0.00,weatherlink.com 1.10,2013-01-23 05:40:00,
2013-01-22 21:55:00,51.7,40.0,30.04,NNW,330,0.0,-999.0,64,-99.99,,,0.00,weatherlink.com 1.10,2013-01-23 05:55:00,
2013-01-22 22:10:00,51.8,40.0,30.04,NNW,331,0.0,-999.0,65,-99.99,,,0.00,weatherlink.com 1.10,2013-01-23 06:10:00,
2013-01-22 22:25:00,51.4,40.0,30.04,NNW,331,0.0,-999.0,66,-99.99,,,0.00,weatherlink.com 1.10,2013-01-23 06:25:00,
2013-01-22 22:40:00,51.5,41.0,30.05,NNW,331,0.0,-999.0,67,-99.99,,,0.00,weatherlink.com 1.10,2013-01-23 06:40:00,
2013-01-22 22:55:00,51.4,41.0,30.05,NNW,336,2.0,-999.0,67,-99.99,,,0.00,weatherlink.com 1.10,2013-01-23 06:55:00,
2013-01-22 23:10:00,51.4,41.0,30.05,NNW,327,1.0,-999.0,68,-99.99,,,0.00,weatherlink.com 1.10,2013-01-23 07:10:00,
2013-01-22 23:25:00,51.3,41.0,30.04,NNW,328,0.0,-999.0,68,-99.99,,,0.00,weatherlink.com 1.10,2013-01-23 07:25:00,
2013-01-22 23:40:00,52.3,41.0,30.04,NNW,328,0.0,-999.0,66,-99.99,,,0.00,weatherlink.com 1.10,2013-01-23 07:40:00,
2013-01-22 23:55:00,52.6,41.0,30.04,NNW,328,0.0,-999.0,66,-99.99,,,0.00,weatherlink.com 1.10,2013-01-23 07:55:00,